sensor_id;sensor_type;location;lat;lon;timestamp;temperature;humidity
16313;DHT22;8265;52.622;13.296;2022-11-15T16:12:55;25.30;45.00
16313;DHT22;8265;52.622;13.296;2022-11-15T16:15:07;25.00;45.00
16313;DHT22;8265;52.622;13.296;2022-11-15T16:16:56;23.90;46.40
16313;DHT22;8265;52.622;13.296;2022-11-15T16:19:52;23.20;49.20
16313;DHT22;8265;52.622;13.296;2022-11-15T16:22:12;23.50;44.60
16313;DHT22;8265;52.622;13.296;2022-11-15T16:24:03;23.30;43.70
16313;DHT22;8265;52.622;13.296;2022-11-15T16:29:24;22.20;43.60
16313;DHT22;8265;52.622;13.296;2022-11-15T16:34:45;17.00;51.50
16313;DHT22;8265;52.622;13.296;2022-11-15T16:40:51;12.90;61.30
16313;DHT22;8265;52.622;13.296;2022-11-15T16:45:27;10.50;69.10
16313;DHT22;8265;52.622;13.296;2022-11-15T16:50:57;9.10;74.90
16313;DHT22;8265;52.622;13.296;2022-11-15T16:56:19;8.20;79.20
16313;DHT22;8265;52.622;13.296;2022-11-15T17:01:31;7.60;81.60
16313;DHT22;8265;52.622;13.296;2022-11-15T17:06:51;7.20;83.70
16313;DHT22;8265;52.622;13.296;2022-11-15T17:12:14;6.80;85.40
16313;DHT22;8265;52.622;13.296;2022-11-15T17:17:33;6.60;86.40
16313;DHT22;8265;52.622;13.296;2022-11-15T17:22:54;6.50;88.50
16313;DHT22;8265;52.622;13.296;2022-11-15T17:28:14;6.40;87.70
16313;DHT22;8265;52.622;13.296;2022-11-15T17:33:36;6.20;88.00
16313;DHT22;8265;52.622;13.296;2022-11-15T17:38:57;6.00;88.70
16313;DHT22;8265;52.622;13.296;2022-11-15T17:44:17;6.20;91.90
16313;DHT22;8265;52.622;13.296;2022-11-15T17:49:39;6.20;89.20
16313;DHT22;8265;52.622;13.296;2022-11-15T17:55:00;5.80;88.80
16313;DHT22;8265;52.622;13.296;2022-11-15T18:00:21;5.60;89.10
16313;DHT22;8265;52.622;13.296;2022-11-15T18:05:42;5.50;89.60
16313;DHT22;8265;52.622;13.296;2022-11-15T18:11:13;5.30;90.00
16313;DHT22;8265;52.622;13.296;2022-11-15T18:16:24;5.10;90.30
16313;DHT22;8265;52.622;13.296;2022-11-15T18:21:44;5.00;90.90
16313;DHT22;8265;52.622;13.296;2022-11-15T18:27:05;5.00;91.20
16313;DHT22;8265;52.622;13.296;2022-11-15T18:32:26;4.90;91.20
16313;DHT22;8265;52.622;13.296;2022-11-15T18:37:47;5.00;92.50
16313;DHT22;8265;52.622;13.296;2022-11-15T18:43:08;5.00;91.10
16313;DHT22;8265;52.622;13.296;2022-11-15T18:48:30;4.80;91.60
16313;DHT22;8265;52.622;13.296;2022-11-15T18:53:54;4.80;92.40
16313;DHT22;8265;52.622;13.296;2022-11-15T18:59:12;4.90;92.90
16313;DHT22;8265;52.622;13.296;2022-11-15T19:04:32;5.00;93.00
16313;DHT22;8265;52.622;13.296;2022-11-15T19:09:53;5.10;92.90
16313;DHT22;8265;52.622;13.296;2022-11-15T19:15:14;5.20;92.70
16313;DHT22;8265;52.622;13.296;2022-11-15T19:20:35;5.30;92.40
16313;DHT22;8265;52.622;13.296;2022-11-15T19:25:57;5.30;93.10
16313;DHT22;8265;52.622;13.296;2022-11-15T19:31:18;5.50;92.00
16313;DHT22;8265;52.622;13.296;2022-11-15T19:36:39;5.40;92.00
16313;DHT22;8265;52.622;13.296;2022-11-15T19:41:59;5.40;92.10
16313;DHT22;8265;52.622;13.296;2022-11-15T19:47:20;5.40;92.50
16313;DHT22;8265;52.622;13.296;2022-11-15T19:52:41;5.40;92.70
16313;DHT22;8265;52.622;13.296;2022-11-15T19:58:02;5.50;92.70
16313;DHT22;8265;52.622;13.296;2022-11-15T20:03:23;5.50;92.80
16313;DHT22;8265;52.622;13.296;2022-11-15T20:08:45;5.70;92.50
16313;DHT22;8265;52.622;13.296;2022-11-15T20:14:05;5.80;91.90
16313;DHT22;8265;52.622;13.296;2022-11-15T20:19:27;5.70;91.90
16313;DHT22;8265;52.622;13.296;2022-11-15T20:24:47;5.70;92.00
16313;DHT22;8265;52.622;13.296;2022-11-15T20:30:09;5.60;92.30
16313;DHT22;8265;52.622;13.296;2022-11-15T20:35:29;5.70;92.60
16313;DHT22;8265;52.622;13.296;2022-11-15T20:40:50;5.70;92.40
16313;DHT22;8265;52.622;13.296;2022-11-15T20:46:11;5.70;92.50
16313;DHT22;8265;52.622;13.296;2022-11-15T20:51:32;5.70;92.40
16313;DHT22;8265;52.622;13.296;2022-11-15T20:56:53;5.80;92.20
16313;DHT22;8265;52.622;13.296;2022-11-15T21:02:14;5.90;92.00
16313;DHT22;8265;52.622;13.296;2022-11-15T21:07:35;5.80;92.10
16313;DHT22;8265;52.622;13.296;2022-11-15T21:12:56;5.90;91.60
16313;DHT22;8265;52.622;13.296;2022-11-15T21:18:17;5.70;92.10
16313;DHT22;8265;52.622;13.296;2022-11-15T21:23:38;5.70;92.10
16313;DHT22;8265;52.622;13.296;2022-11-15T21:28:59;5.80;91.90
16313;DHT22;8265;52.622;13.296;2022-11-15T21:34:20;5.90;91.60
16313;DHT22;8265;52.622;13.296;2022-11-15T21:39:41;5.70;91.70
16313;DHT22;8265;52.622;13.296;2022-11-15T21:45:02;5.70;92.00
16313;DHT22;8265;52.622;13.296;2022-11-15T21:50:23;5.70;92.00
16313;DHT22;8265;52.622;13.296;2022-11-15T21:55:44;5.60;92.30
16313;DHT22;8265;52.622;13.296;2022-11-15T22:01:05;5.60;92.40
16313;DHT22;8265;52.622;13.296;2022-11-15T22:06:26;5.70;92.50
16313;DHT22;8265;52.622;13.296;2022-11-15T22:11:47;5.60;92.50
16313;DHT22;8265;52.622;13.296;2022-11-15T22:17:10;5.60;92.70
16313;DHT22;8265;52.622;13.296;2022-11-15T22:22:29;5.70;92.60
16313;DHT22;8265;52.622;13.296;2022-11-15T22:27:50;5.70;92.20
16313;DHT22;8265;52.622;13.296;2022-11-15T22:33:11;5.60;92.00
16313;DHT22;8265;52.622;13.296;2022-11-15T22:38:32;5.60;92.30
16313;DHT22;8265;52.622;13.296;2022-11-15T22:43:53;5.80;92.50
16313;DHT22;8265;52.622;13.296;2022-11-15T22:49:14;5.70;92.20
16313;DHT22;8265;52.622;13.296;2022-11-15T22:54:35;5.70;92.30
16313;DHT22;8265;52.622;13.296;2022-11-15T22:59:56;5.80;91.60
16313;DHT22;8265;52.622;13.296;2022-11-15T23:05:17;5.90;91.60
16313;DHT22;8265;52.622;13.296;2022-11-15T23:10:38;5.80;91.50
16313;DHT22;8265;52.622;13.296;2022-11-15T23:16:03;5.90;91.30
16313;DHT22;8265;52.622;13.296;2022-11-15T23:21:24;5.70;91.40
16313;DHT22;8265;52.622;13.296;2022-11-15T23:26:41;5.60;91.60
16313;DHT22;8265;52.622;13.296;2022-11-15T23:32:02;5.50;91.80
16313;DHT22;8265;52.622;13.296;2022-11-15T23:37:23;5.60;91.30
16313;DHT22;8265;52.622;13.296;2022-11-15T23:42:44;5.50;91.80
16313;DHT22;8265;52.622;13.296;2022-11-15T23:48:05;5.40;91.70
16313;DHT22;8265;52.622;13.296;2022-11-15T23:53:26;5.30;92.30
16313;DHT22;8265;52.622;13.296;2022-11-15T23:58:47;5.30;92.10
